sensor_id;sensor_type;location;lat;lon;timestamp;temperature;humidity
8832;DHT22;4452;50.756;4.472;2023-04-03T00:02:07;3.00;99.90
8832;DHT22;4452;50.756;4.472;2023-04-03T00:04:33;3.00;99.90
8832;DHT22;4452;50.756;4.472;2023-04-03T00:06:58;3.00;99.90
8832;DHT22;4452;50.756;4.472;2023-04-03T00:09:24;2.90;99.90
8832;DHT22;4452;50.756;4.472;2023-04-03T00:11:50;2.80;99.90
8832;DHT22;4452;50.756;4.472;2023-04-03T00:14:16;2.80;99.90
8832;DHT22;4452;50.756;4.472;2023-04-03T00:16:41;2.90;99.90
8832;DHT22;4452;50.756;4.472;2023-04-03T00:19:07;2.80;99.90
8832;DHT22;4452;50.756;4.472;2023-04-03T00:21:33;2.90;99.90
8832;DHT22;4452;50.756;4.472;2023-04-03T00:23:58;2.90;99.90
8832;DHT22;4452;50.756;4.472;2023-04-03T00:26:24;2.80;99.90
8832;DHT22;4452;50.756;4.472;2023-04-03T00:28:50;2.70;99.90
8832;DHT22;4452;50.756;4.472;2023-04-03T00:31:15;2.70;99.90
8832;DHT22;4452;50.756;4.472;2023-04-03T00:33:41;2.60;99.90
8832;DHT22;4452;50.756;4.472;2023-04-03T00:36:09;2.60;99.90
8832;DHT22;4452;50.756;4.472;2023-04-03T00:38:36;2.60;99.90
8832;DHT22;4452;50.756;4.472;2023-04-03T00:41:02;2.70;99.90
8832;DHT22;4452;50.756;4.472;2023-04-03T00:43:28;2.70;99.90
8832;DHT22;4452;50.756;4.472;2023-04-03T00:45:55;2.80;99.90
8832;DHT22;4452;50.756;4.472;2023-04-03T00:48:39;2.70;99.90
8832;DHT22;4452;50.756;4.472;2023-04-03T00:51:08;2.70;99.90
8832;DHT22;4452;50.756;4.472;2023-04-03T00:53:47;3.10;99.90
8832;DHT22;4452;50.756;4.472;2023-04-03T00:56:16;2.80;99.90
8832;DHT22;4452;50.756;4.472;2023-04-03T00:58:56;2.70;99.90
8832;DHT22;4452;50.756;4.472;2023-04-03T01:01:26;2.60;99.90
8832;DHT22;4452;50.756;4.472;2023-04-03T01:03:52;2.60;99.90
8832;DHT22;4452;50.756;4.472;2023-04-03T01:06:21;2.70;99.90
8832;DHT22;4452;50.756;4.472;2023-04-03T01:08:49;2.70;99.90
8832;DHT22;4452;50.756;4.472;2023-04-03T01:11:15;2.60;99.90
8832;DHT22;4452;50.756;4.472;2023-04-03T01:13:42;2.70;99.90
8832;DHT22;4452;50.756;4.472;2023-04-03T01:16:08;2.60;99.90
8832;DHT22;4452;50.756;4.472;2023-04-03T01:18:36;2.50;99.90
8832;DHT22;4452;50.756;4.472;2023-04-03T01:21:23;2.50;99.90
8832;DHT22;4452;50.756;4.472;2023-04-03T01:26:37;2.40;99.90
8832;DHT22;4452;50.756;4.472;2023-04-03T01:29:03;2.50;99.90
8832;DHT22;4452;50.756;4.472;2023-04-03T01:34:01;2.40;99.90
8832;DHT22;4452;50.756;4.472;2023-04-03T01:36:29;2.40;99.90
8832;DHT22;4452;50.756;4.472;2023-04-03T01:38:56;2.40;99.90
8832;DHT22;4452;50.756;4.472;2023-04-03T01:41:22;2.30;99.90
8832;DHT22;4452;50.756;4.472;2023-04-03T01:43:48;2.40;99.90
8832;DHT22;4452;50.756;4.472;2023-04-03T01:46:15;2.30;99.90
8832;DHT22;4452;50.756;4.472;2023-04-03T01:48:41;2.20;99.90
8832;DHT22;4452;50.756;4.472;2023-04-03T01:51:07;2.20;99.90
8832;DHT22;4452;50.756;4.472;2023-04-03T01:53:32;2.20;99.90
8832;DHT22;4452;50.756;4.472;2023-04-03T01:55:58;2.20;99.90
8832;DHT22;4452;50.756;4.472;2023-04-03T01:58:24;2.10;99.90
8832;DHT22;4452;50.756;4.472;2023-04-03T02:00:51;2.10;99.90
8832;DHT22;4452;50.756;4.472;2023-04-03T02:03:16;2.00;99.90
8832;DHT22;4452;50.756;4.472;2023-04-03T02:05:42;2.00;99.90
8832;DHT22;4452;50.756;4.472;2023-04-03T02:08:07;2.00;99.90
8832;DHT22;4452;50.756;4.472;2023-04-03T02:10:33;1.90;99.90
8832;DHT22;4452;50.756;4.472;2023-04-03T02:12:59;1.90;99.90
8832;DHT22;4452;50.756;4.472;2023-04-03T02:15:24;2.00;99.90
8832;DHT22;4452;50.756;4.472;2023-04-03T02:17:50;1.90;99.90
8832;DHT22;4452;50.756;4.472;2023-04-03T02:20:16;1.90;99.90
8832;DHT22;4452;50.756;4.472;2023-04-03T02:22:42;1.90;99.90
8832;DHT22;4452;50.756;4.472;2023-04-03T02:25:08;1.80;99.90
8832;DHT22;4452;50.756;4.472;2023-04-03T02:27:34;1.80;99.90
8832;DHT22;4452;50.756;4.472;2023-04-03T02:30:00;1.80;99.90
8832;DHT22;4452;50.756;4.472;2023-04-03T02:32:26;1.70;99.90
8832;DHT22;4452;50.756;4.472;2023-04-03T02:34:51;1.70;99.90
8832;DHT22;4452;50.756;4.472;2023-04-03T02:37:17;1.80;99.90
8832;DHT22;4452;50.756;4.472;2023-04-03T02:39:43;1.70;99.90
8832;DHT22;4452;50.756;4.472;2023-04-03T02:42:08;1.70;99.90
8832;DHT22;4452;50.756;4.472;2023-04-03T02:44:34;1.70;99.90
8832;DHT22;4452;50.756;4.472;2023-04-03T02:47:01;1.60;99.90
8832;DHT22;4452;50.756;4.472;2023-04-03T02:49:26;1.60;99.90
8832;DHT22;4452;50.756;4.472;2023-04-03T02:51:52;1.50;99.90
8832;DHT22;4452;50.756;4.472;2023-04-03T02:54:17;1.60;99.90
8832;DHT22;4452;50.756;4.472;2023-04-03T02:56:43;1.40;99.90
8832;DHT22;4452;50.756;4.472;2023-04-03T02:59:09;1.30;99.90
8832;DHT22;4452;50.756;4.472;2023-04-03T03:01:34;1.30;99.90
8832;DHT22;4452;50.756;4.472;2023-04-03T03:04:01;1.30;99.90
8832;DHT22;4452;50.756;4.472;2023-04-03T03:06:27;1.20;99.90
8832;DHT22;4452;50.756;4.472;2023-04-03T03:08:53;1.10;99.90
8832;DHT22;4452;50.756;4.472;2023-04-03T03:11:18;1.00;99.90
8832;DHT22;4452;50.756;4.472;2023-04-03T03:13:44;0.90;99.90
8832;DHT22;4452;50.756;4.472;2023-04-03T03:16:10;0.80;99.90
8832;DHT22;4452;50.756;4.472;2023-04-03T03:18:36;0.90;99.90
8832;DHT22;4452;50.756;4.472;2023-04-03T03:21:02;1.00;99.90
8832;DHT22;4452;50.756;4.472;2023-04-03T03:23:30;1.00;99.90
8832;DHT22;4452;50.756;4.472;2023-04-03T03:25:59;1.10;99.90
8832;DHT22;4452;50.756;4.472;2023-04-03T03:28:25;1.10;99.90
8832;DHT22;4452;50.756;4.472;2023-04-03T03:30:51;1.10;99.90
8832;DHT22;4452;50.756;4.472;2023-04-03T03:33:17;1.00;99.90
8832;DHT22;4452;50.756;4.472;2023-04-03T03:35:43;1.00;99.90
8832;DHT22;4452;50.756;4.472;2023-04-03T03:38:09;1.00;99.90
8832;DHT22;4452;50.756;4.472;2023-04-03T03:40:35;0.90;99.90
8832;DHT22;4452;50.756;4.472;2023-04-03T03:43:00;0.90;99.90
8832;DHT22;4452;50.756;4.472;2023-04-03T03:45:26;0.90;99.90
8832;DHT22;4452;50.756;4.472;2023-04-03T03:47:51;0.90;99.90
8832;DHT22;4452;50.756;4.472;2023-04-03T03:50:17;0.90;99.90
8832;DHT22;4452;50.756;4.472;2023-04-03T03:52:43;0.90;99.90
8832;DHT22;4452;50.756;4.472;2023-04-03T03:55:09;0.90;99.90
8832;DHT22;4452;50.756;4.472;2023-04-03T03:57:34;0.90;99.90
8832;DHT22;4452;50.756;4.472;2023-04-03T04:00:00;1.00;99.90
8832;DHT22;4452;50.756;4.472;2023-04-03T04:02:26;1.00;99.90
8832;DHT22;4452;50.756;4.472;2023-04-03T04:04:52;1.00;99.90
8832;DHT22;4452;50.756;4.472;2023-04-03T04:07:17;1.00;99.90
8832;DHT22;4452;50.756;4.472;2023-04-03T04:09:43;1.00;99.90
8832;DHT22;4452;50.756;4.472;2023-04-03T04:12:08;0.90;99.90
8832;DHT22;4452;50.756;4.472;2023-04-03T04:14:34;0.90;99.90
8832;DHT22;4452;50.756;4.472;2023-04-03T04:17:00;0.90;99.90
8832;DHT22;4452;50.756;4.472;2023-04-03T04:19:27;0.90;99.90
8832;DHT22;4452;50.756;4.472;2023-04-03T04:21:53;0.90;99.90
8832;DHT22;4452;50.756;4.472;2023-04-03T04:24:19;0.90;99.90
8832;DHT22;4452;50.756;4.472;2023-04-03T04:26:44;0.90;99.90
8832;DHT22;4452;50.756;4.472;2023-04-03T04:29:10;0.90;99.90
8832;DHT22;4452;50.756;4.472;2023-04-03T04:31:36;1.00;99.90
8832;DHT22;4452;50.756;4.472;2023-04-03T04:34:01;0.90;99.90
8832;DHT22;4452;50.756;4.472;2023-04-03T04:36:27;0.80;99.90
8832;DHT22;4452;50.756;4.472;2023-04-03T04:38:52;0.80;99.90
8832;DHT22;4452;50.756;4.472;2023-04-03T04:41:20;0.90;99.90
8832;DHT22;4452;50.756;4.472;2023-04-03T04:43:48;0.90;99.90
8832;DHT22;4452;50.756;4.472;2023-04-03T04:46:13;0.80;99.90
8832;DHT22;4452;50.756;4.472;2023-04-03T04:48:39;0.80;99.90
8832;DHT22;4452;50.756;4.472;2023-04-03T04:51:06;0.70;99.90
8832;DHT22;4452;50.756;4.472;2023-04-03T04:53:32;0.70;99.90
8832;DHT22;4452;50.756;4.472;2023-04-03T04:55:58;0.80;99.90
8832;DHT22;4452;50.756;4.472;2023-04-03T04:58:23;0.70;99.90
8832;DHT22;4452;50.756;4.472;2023-04-03T05:00:49;0.70;99.90
8832;DHT22;4452;50.756;4.472;2023-04-03T05:03:15;0.80;99.90
8832;DHT22;4452;50.756;4.472;2023-04-03T05:05:41;0.80;99.90
8832;DHT22;4452;50.756;4.472;2023-04-03T05:08:06;0.80;99.90
8832;DHT22;4452;50.756;4.472;2023-04-03T05:10:34;0.80;99.90
8832;DHT22;4452;50.756;4.472;2023-04-03T05:12:59;0.80;99.90
8832;DHT22;4452;50.756;4.472;2023-04-03T05:15:25;0.80;99.90
8832;DHT22;4452;50.756;4.472;2023-04-03T05:17:51;0.70;99.90
8832;DHT22;4452;50.756;4.472;2023-04-03T05:20:17;0.80;99.90
8832;DHT22;4452;50.756;4.472;2023-04-03T05:22:42;0.80;99.90
8832;DHT22;4452;50.756;4.472;2023-04-03T05:25:09;0.80;99.90
8832;DHT22;4452;50.756;4.472;2023-04-03T05:27:35;0.90;99.90
8832;DHT22;4452;50.756;4.472;2023-04-03T05:30:00;0.90;99.90
8832;DHT22;4452;50.756;4.472;2023-04-03T05:32:26;0.90;99.90
8832;DHT22;4452;50.756;4.472;2023-04-03T05:34:53;1.00;99.90
8832;DHT22;4452;50.756;4.472;2023-04-03T05:37:19;1.00;99.90
8832;DHT22;4452;50.756;4.472;2023-04-03T05:39:44;1.00;99.90
8832;DHT22;4452;50.756;4.472;2023-04-03T05:42:10;0.90;99.90
8832;DHT22;4452;50.756;4.472;2023-04-03T05:44:37;0.90;99.90
8832;DHT22;4452;50.756;4.472;2023-04-03T05:47:03;0.90;99.90
8832;DHT22;4452;50.756;4.472;2023-04-03T05:49:29;1.00;99.90
8832;DHT22;4452;50.756;4.472;2023-04-03T05:51:54;1.10;99.90
8832;DHT22;4452;50.756;4.472;2023-04-03T05:54:24;1.20;99.90
8832;DHT22;4452;50.756;4.472;2023-04-03T05:56:50;1.30;99.90
8832;DHT22;4452;50.756;4.472;2023-04-03T05:59:17;1.30;99.90
8832;DHT22;4452;50.756;4.472;2023-04-03T06:01:43;1.50;99.90
8832;DHT22;4452;50.756;4.472;2023-04-03T06:04:09;1.40;99.90
8832;DHT22;4452;50.756;4.472;2023-04-03T06:06:46;1.50;99.90
8832;DHT22;4452;50.756;4.472;2023-04-03T06:09:14;1.60;99.90
8832;DHT22;4452;50.756;4.472;2023-04-03T06:11:40;1.70;99.90
8832;DHT22;4452;50.756;4.472;2023-04-03T06:14:07;1.90;99.90
8832;DHT22;4452;50.756;4.472;2023-04-03T06:16:33;2.00;99.90
8832;DHT22;4452;50.756;4.472;2023-04-03T06:18:59;2.00;99.90
8832;DHT22;4452;50.756;4.472;2023-04-03T06:21:25;2.10;99.90
8832;DHT22;4452;50.756;4.472;2023-04-03T06:23:51;2.10;99.90
8832;DHT22;4452;50.756;4.472;2023-04-03T06:26:17;2.20;99.90
8832;DHT22;4452;50.756;4.472;2023-04-03T06:28:43;2.30;99.90
8832;DHT22;4452;50.756;4.472;2023-04-03T06:31:09;2.40;99.90
8832;DHT22;4452;50.756;4.472;2023-04-03T06:33:34;2.50;99.90
8832;DHT22;4452;50.756;4.472;2023-04-03T06:36:03;2.60;99.90
8832;DHT22;4452;50.756;4.472;2023-04-03T06:38:30;2.70;99.90
8832;DHT22;4452;50.756;4.472;2023-04-03T06:40:55;2.70;99.90
8832;DHT22;4452;50.756;4.472;2023-04-03T06:43:21;2.80;99.90
8832;DHT22;4452;50.756;4.472;2023-04-03T06:45:47;2.90;99.90
8832;DHT22;4452;50.756;4.472;2023-04-03T06:48:13;2.90;99.90
8832;DHT22;4452;50.756;4.472;2023-04-03T06:50:39;3.00;99.90
8832;DHT22;4452;50.756;4.472;2023-04-03T06:53:04;3.10;99.90
8832;DHT22;4452;50.756;4.472;2023-04-03T06:55:30;3.20;99.90
8832;DHT22;4452;50.756;4.472;2023-04-03T06:57:57;3.20;99.90
8832;DHT22;4452;50.756;4.472;2023-04-03T07:00:22;3.30;99.90
8832;DHT22;4452;50.756;4.472;2023-04-03T07:02:48;3.40;99.90
8832;DHT22;4452;50.756;4.472;2023-04-03T07:05:14;3.40;99.90
8832;DHT22;4452;50.756;4.472;2023-04-03T07:07:39;3.40;99.90
8832;DHT22;4452;50.756;4.472;2023-04-03T07:10:07;3.60;99.90
8832;DHT22;4452;50.756;4.472;2023-04-03T07:12:33;3.70;99.90
8832;DHT22;4452;50.756;4.472;2023-04-03T07:14:58;3.80;99.90
8832;DHT22;4452;50.756;4.472;2023-04-03T07:17:24;3.90;99.90
8832;DHT22;4452;50.756;4.472;2023-04-03T07:19:51;4.00;99.90
8832;DHT22;4452;50.756;4.472;2023-04-03T07:22:17;4.00;99.90
8832;DHT22;4452;50.756;4.472;2023-04-03T07:24:43;4.20;99.90
8832;DHT22;4452;50.756;4.472;2023-04-03T07:27:09;4.30;99.90
8832;DHT22;4452;50.756;4.472;2023-04-03T07:29:36;4.30;99.90
8832;DHT22;4452;50.756;4.472;2023-04-03T07:32:02;4.30;99.90
8832;DHT22;4452;50.756;4.472;2023-04-03T07:34:28;4.30;99.90
8832;DHT22;4452;50.756;4.472;2023-04-03T07:36:53;4.40;99.90
8832;DHT22;4452;50.756;4.472;2023-04-03T07:39:19;4.50;99.90
8832;DHT22;4452;50.756;4.472;2023-04-03T07:41:45;4.40;99.90
8832;DHT22;4452;50.756;4.472;2023-04-03T07:44:11;4.40;99.90
8832;DHT22;4452;50.756;4.472;2023-04-03T07:46:37;4.70;99.90
8832;DHT22;4452;50.756;4.472;2023-04-03T07:49:03;4.70;99.90
8832;DHT22;4452;50.756;4.472;2023-04-03T07:51:28;4.70;99.90
8832;DHT22;4452;50.756;4.472;2023-04-03T07:53:55;4.70;99.90
8832;DHT22;4452;50.756;4.472;2023-04-03T07:56:21;4.70;99.90
8832;DHT22;4452;50.756;4.472;2023-04-03T07:58:46;4.70;99.90
8832;DHT22;4452;50.756;4.472;2023-04-03T08:01:13;5.00;99.90
8832;DHT22;4452;50.756;4.472;2023-04-03T08:03:39;5.00;99.90
8832;DHT22;4452;50.756;4.472;2023-04-03T08:06:07;5.10;99.90
8832;DHT22;4452;50.756;4.472;2023-04-03T08:08:34;5.30;99.90
8832;DHT22;4452;50.756;4.472;2023-04-03T08:11:00;5.20;99.90
8832;DHT22;4452;50.756;4.472;2023-04-03T08:13:28;5.40;99.90
8832;DHT22;4452;50.756;4.472;2023-04-03T08:15:54;5.50;99.90
8832;DHT22;4452;50.756;4.472;2023-04-03T08:18:21;5.50;99.90
8832;DHT22;4452;50.756;4.472;2023-04-03T08:20:50;5.50;99.90
8832;DHT22;4452;50.756;4.472;2023-04-03T08:23:16;6.10;99.90
8832;DHT22;4452;50.756;4.472;2023-04-03T08:25:42;5.80;99.90
8832;DHT22;4452;50.756;4.472;2023-04-03T08:28:09;6.00;99.90
8832;DHT22;4452;50.756;4.472;2023-04-03T08:30:38;6.00;99.90
8832;DHT22;4452;50.756;4.472;2023-04-03T08:33:04;6.00;99.90
8832;DHT22;4452;50.756;4.472;2023-04-03T08:35:30;6.00;99.90
8832;DHT22;4452;50.756;4.472;2023-04-03T08:37:56;6.10;99.90
8832;DHT22;4452;50.756;4.472;2023-04-03T08:40:22;6.10;99.90
8832;DHT22;4452;50.756;4.472;2023-04-03T08:42:57;6.20;99.90
8832;DHT22;4452;50.756;4.472;2023-04-03T08:48:23;6.50;99.90
8832;DHT22;4452;50.756;4.472;2023-04-03T08:50:54;6.50;99.90
8832;DHT22;4452;50.756;4.472;2023-04-03T08:53:27;6.40;99.90
8832;DHT22;4452;50.756;4.472;2023-04-03T08:55:55;6.70;99.90
8832;DHT22;4452;50.756;4.472;2023-04-03T08:58:26;6.80;99.90
8832;DHT22;4452;50.756;4.472;2023-04-03T09:00:54;6.80;99.90
8832;DHT22;4452;50.756;4.472;2023-04-03T09:03:22;6.60;99.90
8832;DHT22;4452;50.756;4.472;2023-04-03T09:06:04;6.60;99.90
8832;DHT22;4452;50.756;4.472;2023-04-03T09:14:23;6.40;99.90
8832;DHT22;4452;50.756;4.472;2023-04-03T09:16:56;6.50;99.90
8832;DHT22;4452;50.756;4.472;2023-04-03T09:22:23;6.70;99.90
8832;DHT22;4452;50.756;4.472;2023-04-03T09:27:25;7.00;99.90
8832;DHT22;4452;50.756;4.472;2023-04-03T09:29:54;7.00;99.90
8832;DHT22;4452;50.756;4.472;2023-04-03T09:34:53;7.60;99.90
8832;DHT22;4452;50.756;4.472;2023-04-03T09:37:42;7.80;99.90
8832;DHT22;4452;50.756;4.472;2023-04-03T09:43:02;7.50;99.90
8832;DHT22;4452;50.756;4.472;2023-04-03T09:45:35;7.40;99.90
8832;DHT22;4452;50.756;4.472;2023-04-03T09:50:33;7.40;99.90
8832;DHT22;4452;50.756;4.472;2023-04-03T09:53:05;7.60;99.90
8832;DHT22;4452;50.756;4.472;2023-04-03T09:55:32;7.80;99.90
8832;DHT22;4452;50.756;4.472;2023-04-03T09:58:00;7.80;99.90
8832;DHT22;4452;50.756;4.472;2023-04-03T10:00:38;7.90;99.90
8832;DHT22;4452;50.756;4.472;2023-04-03T10:03:05;7.80;99.90
8832;DHT22;4452;50.756;4.472;2023-04-03T10:05:46;8.10;99.90
8832;DHT22;4452;50.756;4.472;2023-04-03T10:10:45;8.10;99.90
8832;DHT22;4452;50.756;4.472;2023-04-03T10:13:15;8.10;99.90
8832;DHT22;4452;50.756;4.472;2023-04-03T10:15:50;8.20;99.90
8832;DHT22;4452;50.756;4.472;2023-04-03T10:24:11;8.40;99.90
8832;DHT22;4452;50.756;4.472;2023-04-03T10:29:42;8.00;99.90
8832;DHT22;4452;50.756;4.472;2023-04-03T10:34:43;8.10;99.90
8832;DHT22;4452;50.756;4.472;2023-04-03T10:37:22;8.30;99.90
8832;DHT22;4452;50.756;4.472;2023-04-03T10:43:21;8.10;99.90
8832;DHT22;4452;50.756;4.472;2023-04-03T10:46:03;8.60;99.90
8832;DHT22;4452;50.756;4.472;2023-04-03T10:51:29;9.00;99.90
8832;DHT22;4452;50.756;4.472;2023-04-03T10:54:24;9.30;99.90
8832;DHT22;4452;50.756;4.472;2023-04-03T10:56:54;9.40;99.90
8832;DHT22;4452;50.756;4.472;2023-04-03T10:59:34;9.00;99.90
8832;DHT22;4452;50.756;4.472;2023-04-03T11:02:07;8.80;99.90
8832;DHT22;4452;50.756;4.472;2023-04-03T11:04:40;8.80;99.90
8832;DHT22;4452;50.756;4.472;2023-04-03T11:07:18;8.60;99.90
8832;DHT22;4452;50.756;4.472;2023-04-03T11:09:58;8.80;99.90
8832;DHT22;4452;50.756;4.472;2023-04-03T11:12:42;9.10;99.90
8832;DHT22;4452;50.756;4.472;2023-04-03T11:15:19;9.70;99.90
8832;DHT22;4452;50.756;4.472;2023-04-03T11:17:59;9.30;99.90
8832;DHT22;4452;50.756;4.472;2023-04-03T11:20:29;9.00;99.90
8832;DHT22;4452;50.756;4.472;2023-04-03T11:23:06;9.00;99.90
8832;DHT22;4452;50.756;4.472;2023-04-03T11:25:34;9.00;99.90
8832;DHT22;4452;50.756;4.472;2023-04-03T11:28:05;9.70;99.90
8832;DHT22;4452;50.756;4.472;2023-04-03T11:36:08;9.80;99.90
8832;DHT22;4452;50.756;4.472;2023-04-03T11:38:37;9.30;99.90
8832;DHT22;4452;50.756;4.472;2023-04-03T11:41:07;9.60;99.90
8832;DHT22;4452;50.756;4.472;2023-04-03T11:43:56;9.50;99.90
8832;DHT22;4452;50.756;4.472;2023-04-03T11:46:22;9.50;99.90
8832;DHT22;4452;50.756;4.472;2023-04-03T11:52:12;9.80;99.90
8832;DHT22;4452;50.756;4.472;2023-04-03T11:54:45;9.70;99.90
8832;DHT22;4452;50.756;4.472;2023-04-03T11:57:42;9.80;99.90
8832;DHT22;4452;50.756;4.472;2023-04-03T12:16:06;10.10;99.90
8832;DHT22;4452;50.756;4.472;2023-04-03T12:21:21;10.00;99.90
8832;DHT22;4452;50.756;4.472;2023-04-03T12:24:43;10.40;99.90
8832;DHT22;4452;50.756;4.472;2023-04-03T12:37:43;9.80;99.90
8832;DHT22;4452;50.756;4.472;2023-04-03T12:41:16;9.70;99.90
8832;DHT22;4452;50.756;4.472;2023-04-03T12:43:31;9.90;99.90
8832;DHT22;4452;50.756;4.472;2023-04-03T12:46:14;9.80;99.90
8832;DHT22;4452;50.756;4.472;2023-04-03T12:54:02;10.70;99.90
8832;DHT22;4452;50.756;4.472;2023-04-03T12:56:30;10.80;99.90
8832;DHT22;4452;50.756;4.472;2023-04-03T13:01:38;11.10;99.90
8832;DHT22;4452;50.756;4.472;2023-04-03T13:04:04;11.10;99.90
8832;DHT22;4452;50.756;4.472;2023-04-03T13:06:41;10.70;99.90
8832;DHT22;4452;50.756;4.472;2023-04-03T13:09:25;11.00;99.90
8832;DHT22;4452;50.756;4.472;2023-04-03T13:12:02;11.00;99.90
8832;DHT22;4452;50.756;4.472;2023-04-03T13:14:29;11.20;99.90
8832;DHT22;4452;50.756;4.472;2023-04-03T13:17:15;11.40;99.90
8832;DHT22;4452;50.756;4.472;2023-04-03T13:19:42;10.80;99.90
8832;DHT22;4452;50.756;4.472;2023-04-03T13:22:36;11.10;99.90
8832;DHT22;4452;50.756;4.472;2023-04-03T13:25:06;11.20;99.90
8832;DHT22;4452;50.756;4.472;2023-04-03T13:27:33;11.20;99.90
8832;DHT22;4452;50.756;4.472;2023-04-03T13:30:01;11.80;99.90
8832;DHT22;4452;50.756;4.472;2023-04-03T13:32:28;11.80;99.90
8832;DHT22;4452;50.756;4.472;2023-04-03T13:34:55;11.50;99.90
8832;DHT22;4452;50.756;4.472;2023-04-03T13:37:27;11.80;99.90
8832;DHT22;4452;50.756;4.472;2023-04-03T13:42:34;11.60;99.90
8832;DHT22;4452;50.756;4.472;2023-04-03T13:47:42;12.00;99.90
8832;DHT22;4452;50.756;4.472;2023-04-03T13:52:51;11.60;99.90
8832;DHT22;4452;50.756;4.472;2023-04-03T13:55:19;11.30;99.90
8832;DHT22;4452;50.756;4.472;2023-04-03T14:00:39;12.40;99.90
8832;DHT22;4452;50.756;4.472;2023-04-03T14:03:38;13.00;99.90
8832;DHT22;4452;50.756;4.472;2023-04-03T14:05:59;13.00;99.90
8832;DHT22;4452;50.756;4.472;2023-04-03T14:08:27;12.30;99.90
8832;DHT22;4452;50.756;4.472;2023-04-03T14:10:52;12.30;99.90
8832;DHT22;4452;50.756;4.472;2023-04-03T14:13:20;12.20;99.90
8832;DHT22;4452;50.756;4.472;2023-04-03T14:15:47;12.50;99.90
8832;DHT22;4452;50.756;4.472;2023-04-03T14:18:16;12.30;99.90
8832;DHT22;4452;50.756;4.472;2023-04-03T14:20:43;12.10;99.90
8832;DHT22;4452;50.756;4.472;2023-04-03T14:23:08;12.40;99.90
8832;DHT22;4452;50.756;4.472;2023-04-03T14:25:34;12.70;99.90
8832;DHT22;4452;50.756;4.472;2023-04-03T14:28:00;12.70;99.90
8832;DHT22;4452;50.756;4.472;2023-04-03T14:30:32;12.40;99.90
8832;DHT22;4452;50.756;4.472;2023-04-03T14:32:59;12.20;99.90
8832;DHT22;4452;50.756;4.472;2023-04-03T14:35:26;12.80;99.90
8832;DHT22;4452;50.756;4.472;2023-04-03T14:37:52;12.60;99.90
8832;DHT22;4452;50.756;4.472;2023-04-03T14:40:24;13.00;99.90
8832;DHT22;4452;50.756;4.472;2023-04-03T14:42:50;13.50;99.90
8832;DHT22;4452;50.756;4.472;2023-04-03T14:45:16;13.30;99.90
8832;DHT22;4452;50.756;4.472;2023-04-03T14:47:52;13.40;99.90
8832;DHT22;4452;50.756;4.472;2023-04-03T14:50:24;13.00;99.50
8832;DHT22;4452;50.756;4.472;2023-04-03T14:52:52;13.20;99.90
8832;DHT22;4452;50.756;4.472;2023-04-03T14:55:21;12.80;98.40
8832;DHT22;4452;50.756;4.472;2023-04-03T14:57:47;12.70;99.90
8832;DHT22;4452;50.756;4.472;2023-04-03T15:00:19;12.70;99.10
8832;DHT22;4452;50.756;4.472;2023-04-03T15:02:45;12.30;99.90
8832;DHT22;4452;50.756;4.472;2023-04-03T15:05:12;12.30;99.90
8832;DHT22;4452;50.756;4.472;2023-04-03T15:07:54;13.00;99.90
8832;DHT22;4452;50.756;4.472;2023-04-03T15:10:21;13.40;99.70
8832;DHT22;4452;50.756;4.472;2023-04-03T15:12:48;13.90;99.60
8832;DHT22;4452;50.756;4.472;2023-04-03T15:15:16;13.50;99.60
8832;DHT22;4452;50.756;4.472;2023-04-03T15:17:42;13.90;99.90
8832;DHT22;4452;50.756;4.472;2023-04-03T15:20:15;14.20;99.40
8832;DHT22;4452;50.756;4.472;2023-04-03T15:22:41;13.80;98.60
8832;DHT22;4452;50.756;4.472;2023-04-03T15:25:07;14.20;99.20
8832;DHT22;4452;50.756;4.472;2023-04-03T15:27:34;13.80;99.90
8832;DHT22;4452;50.756;4.472;2023-04-03T15:30:00;13.70;99.10
8832;DHT22;4452;50.756;4.472;2023-04-03T15:32:25;13.30;98.50
8832;DHT22;4452;50.756;4.472;2023-04-03T15:34:51;13.80;99.10
8832;DHT22;4452;50.756;4.472;2023-04-03T15:37:16;13.90;99.30
8832;DHT22;4452;50.756;4.472;2023-04-03T15:39:42;13.00;97.40
8832;DHT22;4452;50.756;4.472;2023-04-03T15:42:08;12.90;98.40
8832;DHT22;4452;50.756;4.472;2023-04-03T15:44:34;13.40;99.00
8832;DHT22;4452;50.756;4.472;2023-04-03T15:47:01;13.90;98.50
8832;DHT22;4452;50.756;4.472;2023-04-03T15:49:27;13.40;97.60
8832;DHT22;4452;50.756;4.472;2023-04-03T15:51:52;13.80;98.10
8832;DHT22;4452;50.756;4.472;2023-04-03T15:54:18;14.10;99.60
8832;DHT22;4452;50.756;4.472;2023-04-03T15:56:44;14.00;99.50
8832;DHT22;4452;50.756;4.472;2023-04-03T15:59:10;14.20;98.20
8832;DHT22;4452;50.756;4.472;2023-04-03T16:01:37;14.20;98.00
8832;DHT22;4452;50.756;4.472;2023-04-03T16:04:05;13.40;98.80
8832;DHT22;4452;50.756;4.472;2023-04-03T16:06:30;14.00;98.70
8832;DHT22;4452;50.756;4.472;2023-04-03T16:08:57;14.60;99.90
8832;DHT22;4452;50.756;4.472;2023-04-03T16:11:25;13.90;99.40
8832;DHT22;4452;50.756;4.472;2023-04-03T16:13:51;14.40;99.00
8832;DHT22;4452;50.756;4.472;2023-04-03T16:16:17;14.30;99.90
8832;DHT22;4452;50.756;4.472;2023-04-03T16:18:43;14.90;99.50
8832;DHT22;4452;50.756;4.472;2023-04-03T16:21:09;13.80;98.30
8832;DHT22;4452;50.756;4.472;2023-04-03T16:23:35;13.30;98.70
8832;DHT22;4452;50.756;4.472;2023-04-03T16:26:01;13.20;98.70
8832;DHT22;4452;50.756;4.472;2023-04-03T16:28:26;13.10;97.80
8832;DHT22;4452;50.756;4.472;2023-04-03T16:30:52;13.20;99.10
8832;DHT22;4452;50.756;4.472;2023-04-03T16:33:18;12.80;98.60
8832;DHT22;4452;50.756;4.472;2023-04-03T16:35:47;13.90;99.70
8832;DHT22;4452;50.756;4.472;2023-04-03T16:38:13;14.00;98.70
8832;DHT22;4452;50.756;4.472;2023-04-03T16:40:40;14.30;99.30
8832;DHT22;4452;50.756;4.472;2023-04-03T16:43:06;13.90;98.60
8832;DHT22;4452;50.756;4.472;2023-04-03T16:45:31;13.40;98.10
8832;DHT22;4452;50.756;4.472;2023-04-03T16:47:57;13.20;98.20
8832;DHT22;4452;50.756;4.472;2023-04-03T16:50:22;13.40;99.50
8832;DHT22;4452;50.756;4.472;2023-04-03T16:52:48;13.20;99.50
8832;DHT22;4452;50.756;4.472;2023-04-03T16:55:14;13.20;99.70
8832;DHT22;4452;50.756;4.472;2023-04-03T16:57:40;13.80;99.20
8832;DHT22;4452;50.756;4.472;2023-04-03T17:00:06;13.80;99.90
8832;DHT22;4452;50.756;4.472;2023-04-03T17:02:32;13.60;99.10
8832;DHT22;4452;50.756;4.472;2023-04-03T17:04:58;13.00;99.00
8832;DHT22;4452;50.756;4.472;2023-04-03T17:07:24;13.10;99.90
8832;DHT22;4452;50.756;4.472;2023-04-03T17:09:50;12.60;99.90
8832;DHT22;4452;50.756;4.472;2023-04-03T17:12:19;12.60;99.60
8832;DHT22;4452;50.756;4.472;2023-04-03T17:14:45;12.50;99.80
8832;DHT22;4452;50.756;4.472;2023-04-03T17:17:12;12.30;99.90
8832;DHT22;4452;50.756;4.472;2023-04-03T17:19:39;11.80;99.90
8832;DHT22;4452;50.756;4.472;2023-04-03T17:22:06;10.90;99.90
8832;DHT22;4452;50.756;4.472;2023-04-03T17:24:32;10.30;99.90
8832;DHT22;4452;50.756;4.472;2023-04-03T17:26:58;10.00;99.90
8832;DHT22;4452;50.756;4.472;2023-04-03T17:29:23;9.90;99.90
8832;DHT22;4452;50.756;4.472;2023-04-03T17:31:49;9.80;99.90
8832;DHT22;4452;50.756;4.472;2023-04-03T17:34:15;9.80;99.90
8832;DHT22;4452;50.756;4.472;2023-04-03T17:36:40;9.20;99.90
8832;DHT22;4452;50.756;4.472;2023-04-03T17:39:06;9.50;99.90
8832;DHT22;4452;50.756;4.472;2023-04-03T17:41:32;9.30;99.90
8832;DHT22;4452;50.756;4.472;2023-04-03T17:43:58;9.20;99.90
8832;DHT22;4452;50.756;4.472;2023-04-03T17:46:24;9.10;99.90
8832;DHT22;4452;50.756;4.472;2023-04-03T17:48:51;8.90;99.90
8832;DHT22;4452;50.756;4.472;2023-04-03T17:51:23;8.90;99.90
8832;DHT22;4452;50.756;4.472;2023-04-03T17:53:49;8.80;99.90
8832;DHT22;4452;50.756;4.472;2023-04-03T17:56:18;8.60;99.90
8832;DHT22;4452;50.756;4.472;2023-04-03T17:58:44;8.60;99.90
8832;DHT22;4452;50.756;4.472;2023-04-03T18:01:19;8.50;99.90
8832;DHT22;4452;50.756;4.472;2023-04-03T18:03:46;8.40;99.90
8832;DHT22;4452;50.756;4.472;2023-04-03T18:06:17;8.30;99.90